Accueil
METAR-TAF:

METAR-TAF

Aéroports :

Aéroport international de Koweït

Koweït, Koweït

latitude: 29-13N, longitude: 047-59E, altitude: 55 m

Observation

Le bulletin a été fait il y a 13 minutes, à 21:00 UTC
Vent 11 kt de nord-ouest
Température 38°C
Humidité 12%
Pression 997 hPa
Visibilité 10 km ou plus
pas de nuages en-dessous de 1500 mètres et pas de cumulonimbus.

METAR: OKBK 172100Z 31011KT CAVOK 38/04 Q0997 NOSIG

Heure: 00:13 (21:13 UTC)

Prévision

Le bulletin a été fait il y a 4 heures et 28 minutes, à 16:45 UTC
Prévision valable du 17 à 18 UTC au 18 à 24 UTC
Vent 15 kt de nord/nord-ouest
Visibilité: 8000 m
Ciel clair

TAF: OKBK 171645Z 1718/1824 34015KT 8000 SKC

Observations et prévisions météorologiques de plus de 4000 aéroports (messages METAR et TAF).

Les stations disponibles sont représentées par des disques jaunes et rouges sur la carte.

Passer la souris dessus pour voir le nom de la station.

Cliquer dessus pour voir les observations et prévisions météorologiques.

Pour changer de carte: cliquez sur les boutons verts avec une croix noire pour zoomer, sur le bouton vert avec un tiret pour effectuer un zoom arrière, ou sur les flèches vertes pour les cartes adjacentes.


METAR-TAF: